Time;durP1;ratioP1;P1;durP2;ratioP2;P2;SDS_P1;SDS_P2;PMS_P1;PMS_P2;Temp;Humidity;BMP_temperature;BMP_pressure;BME280_temperature;BME280_humidity;BME280_pressure;Samples;Min_cycle;Max_cycle;Signal;HPM_P1;HPM_P2
2021/05/06 00:00:59;;;;;;;23.02;3.95;;;7.20;99.90;;;;;;1903203;74;21616;-73
2021/05/06 00:08:39;;;;;;;21.23;3.60;;;7.10;99.90;;;;;;1841186;76;21130;-73
2021/05/06 00:11:11;;;;;;;21.93;2.87;;;7.10;99.90;;;;;;1846625;76;21562;-71
2021/05/06 00:30:12;;;;;;;13.83;3.40;;;7.10;99.90;;;;;;1856200;76;21149;-72
2021/05/06 00:32:30;;;;;;;17.15;3.33;;;7.00;99.90;;;;;;1875185;76;21690;-72
2021/05/06 00:34:57;;;;;;;17.50;3.80;;;7.00;99.90;;;;;;1859814;76;21205;-73
2021/05/06 00:37:24;;;;;;;18.00;3.30;;;6.90;99.90;;;;;;1877963;76;21081;-72
2021/05/06 00:40:00;;;;;;;16.45;3.42;;;6.90;99.90;;;;;;1864639;75;21171;-72
2021/05/06 00:42:33;;;;;;;14.70;2.92;;;6.90;99.90;;;;;;1876481;76;21120;-72
2021/05/06 00:45:28;;;;;;;20.82;3.60;;;7.00;99.90;;;;;;1862958;76;21144;-72
2021/05/06 01:04:08;;;;;;;17.67;3.95;;;6.70;99.90;;;;;;1815091;76;21089;-71
2021/05/06 01:06:26;;;;;;;16.00;3.50;;;6.80;99.90;;;;;;1844914;76;21694;-71
2021/05/06 01:08:58;;;;;;;16.90;3.20;;;6.80;99.90;;;;;;1851582;76;21152;-72
2021/05/06 01:13:56;;;;;;;16.17;3.70;;;6.80;99.90;;;;;;1868585;75;21590;-72
2021/05/06 01:16:24;;;;;;;21.00;4.08;;;6.80;99.90;;;;;;1852125;76;21037;-72
2021/05/06 01:18:51;;;;;;;20.10;3.87;;;6.80;99.90;;;;;;1862587;75;21097;-72
2021/05/06 01:21:19;;;;;;;22.50;3.95;;;6.80;99.90;;;;;;1855974;75;21100;-72
2021/05/06 01:23:46;;;;;;;18.77;3.67;;;6.90;99.90;;;;;;1870490;75;21501;-72
2021/05/06 01:26:28;;;;;;;20.37;3.33;;;6.80;99.90;;;;;;1866603;75;21531;-72
2021/05/06 01:28:54;;;;;;;16.27;3.42;;;6.80;99.90;;;;;;1868338;75;21602;-72
2021/05/06 01:31:20;;;;;;;17.07;3.12;;;6.90;99.90;;;;;;1848068;76;21739;-72
2021/05/06 01:34:01;;;;;;;15.55;3.42;;;6.90;99.90;;;;;;1856640;76;21136;-72
2021/05/06 01:36:30;;;;;;;15.50;3.25;;;6.80;99.90;;;;;;1854545;76;21590;-73
2021/05/06 01:39:11;;;;;;;22.13;4.00;;;6.90;99.90;;;;;;1857243;76;21187;-73
2021/05/06 02:00:29;;;;;;;17.35;3.50;;;6.60;99.90;;;;;;1859296;76;21184;-71
2021/05/06 02:02:56;;;;;;;21.65;3.75;;;6.70;99.90;;;;;;1857144;75;21588;-71
2021/05/06 02:05:23;;;;;;;30.35;4.78;;;6.70;99.90;;;;;;1858696;76;21075;-71
2021/05/06 02:07:51;;;;;;;16.97;3.33;;;6.80;99.90;;;;;;1848576;76;21100;-73
2021/05/06 02:10:22;;;;;;;20.32;3.62;;;6.80;99.90;;;;;;1879413;75;21559;-73
2021/05/06 02:12:50;;;;;;;15.85;3.90;;;6.90;99.90;;;;;;1856894;76;21039;-72
2021/05/06 02:15:31;;;;;;;18.20;3.90;;;6.90;99.90;;;;;;1859878;75;21157;-73
2021/05/06 02:17:57;;;;;;;14.93;3.67;;;6.90;99.90;;;;;;1856531;76;21132;-72
2021/05/06 02:20:25;;;;;;;14.73;3.47;;;6.80;99.90;;;;;;1856128;75;21153;-72
2021/05/06 02:22:53;;;;;;;19.30;3.10;;;6.80;99.90;;;;;;1865563;75;21164;-72
2021/05/06 02:25:21;;;;;;;20.32;3.67;;;6.80;99.90;;;;;;1856216;75;21026;-73
2021/05/06 02:27:49;;;;;;;13.00;3.70;;;6.80;99.90;;;;;;1853571;76;21096;-72
2021/05/06 02:30:18;;;;;;;12.93;3.33;;;6.80;99.90;;;;;;1851867;75;21525;-72
2021/05/06 02:32:46;;;;;;;14.78;4.03;;;6.90;99.90;;;;;;1854724;75;21598;-72
2021/05/06 02:35:14;;;;;;;22.10;4.30;;;6.80;99.90;;;;;;1849871;76;21440;-72
2021/05/06 02:37:43;;;;;;;16.65;3.42;;;6.70;99.90;;;;;;1856093;75;21627;-72
2021/05/06 02:40:11;;;;;;;18.70;3.90;;;6.70;99.90;;;;;;1861968;75;21064;-71
2021/05/06 02:42:39;;;;;;;17.92;3.50;;;6.80;99.90;;;;;;1855613;75;21582;-72
2021/05/06 02:45:09;;;;;;;15.83;3.72;;;6.80;99.90;;;;;;1860921;75;21098;-71
2021/05/06 02:47:36;;;;;;;16.77;2.92;;;6.80;99.90;;;;;;1853888;76;21108;-73
2021/05/06 02:50:10;;;;;;;17.62;3.45;;;6.70;99.90;;;;;;1847530;76;21672;-73
2021/05/06 02:52:39;;;;;;;15.83;3.33;;;6.70;99.90;;;;;;1860612;75;21129;-71
2021/05/06 02:55:11;;;;;;;21.52;3.62;;;6.70;99.90;;;;;;1853051;76;21066;-71
2021/05/06 02:57:50;;;;;;;20.23;4.40;;;6.70;99.90;;;;;;1850480;76;21226;-69
2021/05/06 03:02:53;;;;;;;17.70;3.45;;;6.80;99.90;;;;;;1890594;74;21150;-72
2021/05/06 03:05:23;;;;;;;13.72;3.08;;;6.80;99.90;;;;;;1887019;75;21128;-73
2021/05/06 03:22:39;;;;;;;17.73;3.85;;;6.70;99.90;;;;;;1889848;74;21176;-72
2021/05/06 03:23:55;;;;;;;17.37;3.90;;;6.70;99.90;;;;;;1852167;75;21171;-73
2021/05/06 03:26:23;;;;;;;22.82;4.90;;;6.80;99.90;;;;;;1866318;75;21104;-72
2021/05/06 03:29:01;;;;;;;13.60;3.52;;;6.70;99.90;;;;;;1848635;77;21119;-70
2021/05/06 03:42:23;;;;;;;22.15;5.15;;;6.70;99.90;;;;;;1858962;77;21197;-73
2021/05/06 03:44:53;;;;;;;14.95;4.12;;;6.70;99.90;;;;;;1865220;75;21231;-72
2021/05/06 03:50:34;;;;;;;22.02;4.90;;;6.70;99.90;;;;;;1864196;75;21160;-74
2021/05/06 04:28:26;;;;;;;25.65;5.37;;;6.70;99.90;;;;;;1867927;75;21146;-73
2021/05/06 04:35:28;;;;;;;14.55;4.58;;;6.80;99.90;;;;;;1879014;74;21139;-72
2021/05/06 04:37:54;;;;;;;15.48;4.12;;;6.80;99.90;;;;;;1874033;76;21082;-72
2021/05/06 04:43:57;;;;;;;16.45;4.97;;;6.70;99.90;;;;;;1871584;75;21199;-72
2021/05/06 04:54:18;;;;;;;15.75;4.72;;;6.70;99.90;;;;;;1879165;76;21101;-73
2021/05/06 04:56:44;;;;;;;16.93;4.60;;;6.70;99.90;;;;;;1878026;76;21656;-72
2021/05/06 05:07:15;;;;;;;16.82;5.10;;;6.90;99.90;;;;;;1873245;76;21120;-72
2021/05/06 05:10:06;;;;;;;10.93;3.70;;;6.80;99.90;;;;;;1872366;76;21141;-72
2021/05/06 05:18:05;;;;;;;15.18;4.50;;;7.00;99.90;;;;;;1884026;74;21117;-72
2021/05/06 05:20:44;;;;;;;17.32;4.60;;;7.10;99.90;;;;;;1875633;75;21183;-72
2021/05/06 05:26:09;;;;;;;14.58;4.85;;;7.10;99.90;;;;;;1876481;75;21224;-72
2021/05/06 05:28:32;;;;;;;14.30;4.00;;;7.00;99.90;;;;;;1882801;74;21206;-72
2021/05/06 05:30:59;;;;;;;14.68;4.75;;;7.00;99.90;;;;;;1881937;74;21101;-71
2021/05/06 05:33:29;;;;;;;13.03;4.37;;;7.10;99.90;;;;;;1876786;75;21547;-72
2021/05/06 05:36:08;;;;;;;14.70;4.45;;;7.10;99.90;;;;;;1885987;74;21097;-73
2021/05/06 05:38:41;;;;;;;12.75;4.17;;;7.10;99.90;;;;;;1879396;76;21152;-74
2021/05/06 05:41:24;;;;;;;16.00;3.83;;;7.20;99.90;;;;;;1878445;76;21610;-74
2021/05/06 05:54:36;;;;;;;9.50;3.52;;;7.30;99.90;;;;;;1878453;76;21121;-75
2021/05/06 05:57:11;;;;;;;13.65;3.98;;;7.50;99.90;;;;;;1888225;74;21097;-82
2021/05/06 05:59:39;;;;;;;11.08;4.00;;;7.50;99.90;;;;;;1898883;73;21456;-75
2021/05/06 06:02:07;;;;;;;8.13;3.22;;;7.40;99.90;;;;;;1917920;73;21097;-75
2021/05/06 06:04:35;;;;;;;6.03;3.62;;;7.40;99.90;;;;;;1917390;73;21080;-75
2021/05/06 06:07:02;;;;;;;7.05;3.40;;;7.50;99.90;;;;;;1899889;74;21535;-76
2021/05/06 06:09:30;;;;;;;9.28;3.30;;;7.50;99.90;;;;;;1921739;73;21159;-76
2021/05/06 06:11:58;;;;;;;8.30;3.05;;;7.60;99.90;;;;;;1940197;73;21042;-75
2021/05/06 06:14:36;;;;;;;6.60;2.80;;;7.70;99.90;;;;;;1955215;73;21621;-76
2021/05/06 06:16:55;;;;;;;7.95;3.35;;;7.80;99.90;;;;;;1938876;73;21513;-77
2021/05/06 06:19:30;;;;;;;7.95;3.45;;;7.80;99.90;;;;;;1938382;73;21119;-75
2021/05/06 06:21:59;;;;;;;8.63;3.15;;;7.90;99.90;;;;;;1922042;73;21090;-76
2021/05/06 06:24:21;;;;;;;10.40;3.42;;;7.90;99.90;;;;;;1955702;72;21121;-74
2021/05/06 06:26:49;;;;;;;9.33;3.30;;;7.90;99.90;;;;;;1939085;72;21107;-74
2021/05/06 06:29:18;;;;;;;9.23;3.15;;;7.90;99.90;;;;;;1947119;73;21127;-72
2021/05/06 06:31:47;;;;;;;9.45;3.45;;;8.00;99.90;;;;;;1949575;72;21541;-74
2021/05/06 06:34:15;;;;;;;9.43;3.90;;;7.90;99.90;;;;;;1954642;73;21167;-73
2021/05/06 06:36:46;;;;;;;5.60;3.10;;;8.10;99.90;;;;;;1953022;73;21046;-75
2021/05/06 06:39:16;;;;;;;8.70;3.10;;;8.20;99.90;;;;;;1945268;73;21107;-73
2021/05/06 06:41:44;;;;;;;10.05;3.10;;;8.30;99.90;;;;;;1936540;73;21547;-75
2021/05/06 06:44:14;;;;;;;8.05;3.52;;;8.30;99.90;;;;;;1953761;72;21098;-74
2021/05/06 06:46:42;;;;;;;12.13;3.35;;;8.30;99.90;;;;;;1946303;73;21098;-75
2021/05/06 06:49:12;;;;;;;9.55;4.25;;;8.40;99.90;;;;;;1950989;73;21730;-74
2021/05/06 06:51:39;;;;;;;8.33;3.37;;;8.40;99.90;;;;;;1940519;73;21035;-74
2021/05/06 06:54:07;;;;;;;10.13;3.40;;;8.30;99.90;;;;;;1944585;73;21059;-75
2021/05/06 06:56:34;;;;;;;13.38;4.00;;;8.20;99.90;;;;;;1945768;72;21543;-76
2021/05/06 06:59:02;;;;;;;8.03;3.52;;;8.30;99.90;;;;;;1955207;73;21116;-76
2021/05/06 07:01:29;;;;;;;13.98;3.75;;;8.30;99.90;;;;;;1957182;72;21035;-77
2021/05/06 07:03:57;;;;;;;14.25;3.80;;;8.40;99.90;;;;;;1943341;73;21031;-76
2021/05/06 07:06:24;;;;;;;10.88;4.03;;;8.50;99.90;;;;;;1949161;72;21058;-77
2021/05/06 07:08:52;;;;;;;11.90;4.12;;;8.60;99.90;;;;;;1955114;73;21553;-77
2021/05/06 07:11:19;;;;;;;9.10;3.70;;;8.60;99.90;;;;;;1941629;73;21085;-76
2021/05/06 07:13:47;;;;;;;10.35;3.72;;;8.70;99.90;;;;;;1945943;73;21079;-77
2021/05/06 07:16:14;;;;;;;10.65;3.20;;;8.70;99.90;;;;;;1941415;73;21050;-76
2021/05/06 07:18:42;;;;;;;7.58;3.67;;;8.80;99.90;;;;;;1952534;73;21532;-76
2021/05/06 07:21:09;;;;;;;13.70;4.10;;;8.80;99.90;;;;;;1942956;73;21169;-77
2021/05/06 07:23:37;;;;;;;10.45;3.72;;;8.80;99.90;;;;;;1945775;73;21087;-77
2021/05/06 07:26:05;;;;;;;17.37;4.05;;;8.80;99.90;;;;;;1947076;72;21058;-77
2021/05/06 07:28:35;;;;;;;11.50;3.85;;;8.70;99.90;;;;;;1943755;73;21583;-78
2021/05/06 07:31:04;;;;;;;8.28;3.50;;;8.80;99.90;;;;;;1946104;73;21097;-78
2021/05/06 07:33:32;;;;;;;9.00;3.95;;;8.90;99.90;;;;;;1949434;73;21088;-78
2021/05/06 07:36:01;;;;;;;9.23;3.50;;;8.90;99.90;;;;;;1953796;72;21077;-79
2021/05/06 07:38:31;;;;;;;11.60;3.72;;;8.90;99.90;;;;;;1939528;73;21132;-79
2021/05/06 07:41:00;;;;;;;7.50;3.72;;;8.90;99.90;;;;;;1953418;73;21396;-77
2021/05/06 07:43:30;;;;;;;13.93;3.75;;;9.00;99.90;;;;;;1942839;72;21103;-78
2021/05/06 07:45:58;;;;;;;13.85;3.60;;;9.20;99.90;;;;;;1948706;73;21091;-78
2021/05/06 07:48:26;;;;;;;9.65;3.05;;;9.20;99.90;;;;;;1950475;72;21544;-77
2021/05/06 07:50:55;;;;;;;10.95;3.45;;;9.30;99.90;;;;;;1951952;72;21145;-77
2021/05/06 07:53:34;;;;;;;17.37;3.72;;;9.40;99.90;;;;;;1943322;72;21101;-76
2021/05/06 07:55:57;;;;;;;14.53;3.20;;;9.40;99.90;;;;;;1878420;75;21089;-77
2021/05/06 07:58:24;;;;;;;10.75;3.00;;;9.50;99.90;;;;;;1950880;72;21567;-77
2021/05/06 08:00:51;;;;;;;9.53;3.20;;;9.60;99.90;;;;;;1942990;72;21131;-77
2021/05/06 08:03:19;;;;;;;8.68;3.05;;;9.70;99.90;;;;;;1936494;72;21481;-76
2021/05/06 08:05:49;;;;;;;11.50;3.05;;;9.80;99.90;;;;;;1947073;72;21079;-76
2021/05/06 08:08:16;;;;;;;7.87;3.17;;;9.70;99.90;;;;;;1946798;73;21086;-77
2021/05/06 08:10:43;;;;;;;9.73;2.98;;;9.70;99.90;;;;;;1946838;72;21515;-75
2021/05/06 08:13:11;;;;;;;10.63;2.62;;;9.70;99.90;;;;;;1944574;73;21103;-77
2021/05/06 08:15:38;;;;;;;7.22;2.72;;;9.70;99.90;;;;;;1950688;72;21074;-76
2021/05/06 08:18:06;;;;;;;10.20;2.52;;;9.60;99.90;;;;;;1951058;72;21125;-76
2021/05/06 08:20:33;;;;;;;9.33;2.42;;;9.60;99.90;;;;;;1944395;72;21035;-76
2021/05/06 08:23:01;;;;;;;11.00;2.72;;;9.70;99.90;;;;;;1945185;72;21630;-76
2021/05/06 08:25:28;;;;;;;7.95;2.80;;;9.80;99.90;;;;;;1935996;72;21143;-76
2021/05/06 08:27:56;;;;;;;10.88;3.00;;;9.90;99.90;;;;;;1948570;72;21054;-75
2021/05/06 08:30:24;;;;;;;12.03;2.95;;;9.90;99.90;;;;;;1950346;72;21157;-75
2021/05/06 08:32:51;;;;;;;10.10;2.70;;;10.00;99.90;;;;;;1950526;73;21132;-77
2021/05/06 08:35:19;;;;;;;5.85;2.40;;;10.10;99.90;;;;;;1952514;72;21050;-76
2021/05/06 08:37:46;;;;;;;7.37;2.52;;;10.10;99.90;;;;;;1946928;72;21093;-77
2021/05/06 08:40:14;;;;;;;10.53;2.62;;;10.10;99.90;;;;;;1953962;72;21625;-78
2021/05/06 08:42:41;;;;;;;8.13;2.83;;;10.20;99.90;;;;;;1945905;72;21595;-78
2021/05/06 08:45:10;;;;;;;10.10;2.40;;;10.30;99.90;;;;;;1947192;73;21067;-77
2021/05/06 08:47:38;;;;;;;7.72;2.70;;;10.50;99.90;;;;;;1949053;73;21196;-78
2021/05/06 08:50:05;;;;;;;8.95;2.55;;;10.50;99.90;;;;;;1946102;73;21207;-80
2021/05/06 08:52:35;;;;;;;11.75;2.80;;;10.50;99.90;;;;;;1944835;73;21046;-78
2021/05/06 08:55:02;;;;;;;11.33;2.45;;;10.70;99.90;;;;;;1949861;72;21091;-78
2021/05/06 08:57:30;;;;;;;9.00;2.83;;;10.70;99.90;;;;;;1949944;73;21106;-77
2021/05/06 08:59:57;;;;;;;6.78;2.10;;;10.80;99.90;;;;;;1947069;72;21118;-77
2021/05/06 09:02:25;;;;;;;9.13;2.30;;;10.90;99.90;;;;;;1935834;73;21596;-78
2021/05/06 09:04:52;;;;;;;6.83;1.92;;;10.80;99.60;;;;;;1944512;72;21087;-77
2021/05/06 09:07:22;;;;;;;7.95;2.12;;;10.80;99.30;;;;;;1949944;72;21051;-77
2021/05/06 09:09:51;;;;;;;9.48;2.33;;;10.80;99.90;;;;;;1935311;73;21130;-77
2021/05/06 09:12:22;;;;;;;8.50;2.17;;;11.10;98.60;;;;;;1929887;73;21103;-78
2021/05/06 09:14:51;;;;;;;7.67;2.05;;;11.10;98.10;;;;;;1942095;72;21113;-76
2021/05/06 09:17:29;;;;;;;5.28;2.20;;;11.10;97.30;;;;;;1938633;73;21525;-76
2021/05/06 09:20:19;;;;;;;6.20;1.82;;;11.40;96.20;;;;;;1945148;73;21109;-76
2021/05/06 09:22:49;;;;;;;9.25;2.10;;;11.40;95.60;;;;;;1945201;73;21126;-76
2021/05/06 09:25:37;;;;;;;7.12;2.12;;;11.30;96.60;;;;;;1935379;73;21156;-76
2021/05/06 09:28:10;;;;;;;8.25;2.62;;;11.40;95.70;;;;;;1937001;72;21136;-76
2021/05/06 09:30:57;;;;;;;6.28;2.00;;;11.30;96.00;;;;;;1944332;73;21117;-76
2021/05/06 09:33:51;;;;;;;10.35;2.02;;;11.30;95.90;;;;;;1950486;73;21147;-76
2021/05/06 09:36:22;;;;;;;7.20;2.27;;;11.30;94.90;;;;;;1916220;73;21184;-78
2021/05/06 09:38:51;;;;;;;6.53;1.98;;;11.30;93.60;;;;;;1890502;74;21089;-77
2021/05/06 09:41:20;;;;;;;8.13;1.80;;;11.30;95.10;;;;;;1915024;74;21085;-75
2021/05/06 09:43:48;;;;;;;6.03;1.45;;;11.60;93.80;;;;;;1903483;73;21082;-76
2021/05/06 09:46:36;;;;;;;8.03;1.85;;;11.90;92.10;;;;;;1907493;73;21566;-75
2021/05/06 09:49:05;;;;;;;5.08;1.62;;;11.90;92.70;;;;;;1897391;73;21124;-76
2021/05/06 09:51:35;;;;;;;4.85;1.65;;;12.00;92.50;;;;;;1903741;74;21559;-75
2021/05/06 09:54:05;;;;;;;9.40;2.35;;;12.00;90.70;;;;;;1907270;74;21087;-76
2021/05/06 09:56:33;;;;;;;8.60;1.70;;;12.10;91.40;;;;;;1906946;73;21135;-77
2021/05/06 09:59:01;;;;;;;6.55;1.30;;;12.30;92.10;;;;;;1900444;73;21105;-77
2021/05/06 10:01:37;;;;;;;7.67;1.60;;;12.40;92.10;;;;;;1901174;74;21097;-75
2021/05/06 10:04:24;;;;;;;3.90;1.60;;;12.60;90.00;;;;;;1856133;76;21105;-75
2021/05/06 10:07:12;;;;;;;3.52;1.15;;;12.70;90.30;;;;;;1866036;75;21181;-76
2021/05/06 10:09:54;;;;;;;10.00;1.60;;;12.70;89.50;;;;;;1859402;76;21193;-75
2021/05/06 10:12:22;;;;;;;;;;;12.60;89.90;;;;;;1859058;76;21037;-76
2021/05/06 10:14:50;;;;;;;4.37;1.30;;;12.60;90.40;;;;;;1875141;75;20481;-76
2021/05/06 10:17:19;;;;;;;4.53;1.07;;;12.50;90.50;;;;;;1873857;74;21420;-76
2021/05/06 10:19:48;;;;;;;6.40;1.37;;;12.50;88.30;;;;;;1862497;75;21656;-75
2021/05/06 10:22:18;;;;;;;6.08;1.30;;;12.30;86.40;;;;;;1882780;74;21083;-75
2021/05/06 10:24:46;;;;;;;5.83;1.10;;;12.20;87.00;;;;;;1876087;75;21107;-76
2021/05/06 10:27:17;;;;;;;4.45;1.37;;;12.10;86.00;;;;;;1877461;74;21099;-76
2021/05/06 10:29:45;;;;;;;7.45;1.67;;;12.20;85.30;;;;;;1876221;75;21163;-76
2021/05/06 10:32:16;;;;;;;7.40;1.50;;;12.20;90.10;;;;;;1860018;76;21671;-76
2021/05/06 10:34:46;;;;;;;5.53;1.22;;;12.50;85.90;;;;;;1852300;75;21113;-77
2021/05/06 10:37:14;;;;;;;4.58;1.20;;;12.80;83.00;;;;;;1886141;76;21219;-78
2021/05/06 10:39:49;;;;;;;5.90;1.30;;;13.00;85.70;;;;;;1851088;77;21221;-76
2021/05/06 10:42:32;;;;;;;5.20;1.30;;;13.20;84.10;;;;;;1856671;77;21120;-76
2021/05/06 10:45:02;;;;;;;5.42;1.82;;;13.30;85.50;;;;;;1854939;77;21085;-77
2021/05/06 10:47:49;;;;;;;6.00;1.27;;;13.50;85.50;;;;;;1845554;77;21205;-75
2021/05/06 10:50:22;;;;;;;6.20;1.30;;;13.40;84.00;;;;;;1856139;75;21218;-76
2021/05/06 10:52:52;;;;;;;7.45;1.20;;;13.80;86.50;;;;;;1850086;77;21123;-76
2021/05/06 10:55:49;;;;;;;8.08;1.75;;;14.40;77.90;;;;;;1857172;77;21080;-77
2021/05/06 10:58:30;;;;;;;7.83;1.27;;;15.00;73.60;;;;;;1842449;77;21088;-78
2021/05/06 11:01:18;;;;;;;5.00;1.37;;;14.90;74.70;;;;;;1859531;76;21116;-75
2021/05/06 11:04:06;;;;;;;5.90;1.15;;;14.30;74.40;;;;;;1835636;77;21132;-77
2021/05/06 11:06:39;;;;;;;5.87;1.30;;;13.90;76.10;;;;;;1857774;77;21096;-78
2021/05/06 11:09:28;;;;;;;4.33;1.32;;;14.10;76.00;;;;;;1853762;77;21123;-78
2021/05/06 11:12:18;;;;;;;5.20;1.30;;;14.70;75.20;;;;;;1820134;76;21566;-77
2021/05/06 11:15:04;;;;;;;5.28;1.00;;;15.30;73.90;;;;;;1877827;75;21098;-78
2021/05/06 11:17:37;;;;;;;3.42;1.20;;;15.90;75.50;;;;;;1855465;77;21138;-77
2021/05/06 11:20:14;;;;;;;2.67;1.00;;;16.40;74.00;;;;;;1833632;76;21090;-78
2021/05/06 11:22:50;;;;;;;2.95;1.05;;;16.60;71.30;;;;;;1855518;76;21050;-78
2021/05/06 11:25:37;;;;;;;4.05;1.32;;;17.00;65.00;;;;;;1867180;75;21130;-79
2021/05/06 11:28:03;;;;;;;4.25;1.00;;;17.40;65.30;;;;;;1874323;74;21260;-82
2021/05/06 11:30:38;;;;;;;3.58;1.05;;;18.00;58.30;;;;;;1872201;76;21154;-77
2021/05/06 11:33:24;;;;;;;4.70;1.05;;;18.40;56.50;;;;;;1873013;75;21668;-78
2021/05/06 11:36:13;;;;;;;2.80;1.02;;;19.10;56.10;;;;;;1837983;76;21185;-78
2021/05/06 11:38:44;;;;;;;12.73;1.20;;;19.40;59.60;;;;;;1868809;76;21048;-78
2021/05/06 11:41:22;;;;;;;3.55;1.00;;;19.80;56.10;;;;;;1872144;76;21099;-81
2021/05/06 11:43:53;;;;;;;2.15;0.90;;;19.00;54.60;;;;;;1880080;75;21694;-78
2021/05/06 11:46:23;;;;;;;8.63;4.90;;;17.40;58.10;;;;;;1883485;75;21085;-77
2021/05/06 11:48:57;;;;;;;4.58;2.77;;;16.60;59.70;;;;;;1870178;76;21189;-79
2021/05/06 11:51:30;;;;;;;1.90;0.80;;;16.50;58.50;;;;;;1877403;76;21056;-77
2021/05/06 11:54:07;;;;;;;4.00;1.20;;;17.10;62.30;;;;;;1870895;76;21097;-76
2021/05/06 11:56:36;;;;;;;7.12;1.07;;;17.70;60.30;;;;;;1869514;75;21095;-75
2021/05/06 11:59:05;;;;;;;4.15;0.90;;;18.00;61.20;;;;;;1871200;75;21164;-77
2021/05/06 12:01:32;;;;;;;3.98;1.17;;;18.40;62.10;;;;;;1862661;74;21159;-72
2021/05/06 12:04:00;;;;;;;3.72;1.00;;;18.70;58.80;;;;;;1838097;77;21155;-70
2021/05/06 12:06:36;;;;;;;3.83;1.02;;;18.50;58.00;;;;;;1884506;75;21168;-72
2021/05/06 12:09:05;;;;;;;3.02;1.07;;;18.40;59.30;;;;;;1852117;75;21093;-73
2021/05/06 12:11:35;;;;;;;5.53;1.45;;;18.00;59.10;;;;;;1840039;77;21175;-74
2021/05/06 12:14:03;;;;;;;4.60;1.02;;;17.90;62.10;;;;;;1833199;77;21200;-74
2021/05/06 12:16:31;;;;;;;6.85;1.20;;;18.50;59.80;;;;;;1919013;74;21147;-71
2021/05/06 12:19:10;;;;;;;4.42;1.20;;;18.70;60.90;;;;;;1904854;74;21117;-71
2021/05/06 12:21:47;;;;;;;4.10;1.05;;;18.80;58.00;;;;;;1907877;74;21612;-73
2021/05/06 12:24:28;;;;;;;5.05;1.40;;;19.10;56.40;;;;;;1891553;74;21103;-72
2021/05/06 12:26:56;;;;;;;5.50;1.40;;;18.50;56.00;;;;;;1897020;74;21102;-73
2021/05/06 12:29:25;;;;;;;3.17;1.02;;;18.10;56.00;;;;;;1903334;74;21131;-73
2021/05/06 12:31:53;;;;;;;5.95;1.30;;;17.80;60.20;;;;;;1899954;74;21213;-75
2021/05/06 12:34:23;;;;;;;4.85;1.20;;;17.40;58.80;;;;;;1899865;74;21667;-74
2021/05/06 12:36:53;;;;;;;3.17;1.25;;;16.70;59.40;;;;;;1905087;74;21210;-74
2021/05/06 12:39:23;;;;;;;5.45;1.20;;;16.30;59.90;;;;;;1905858;74;21660;-73
2021/05/06 12:41:53;;;;;;;8.70;1.40;;;16.00;58.90;;;;;;1902095;74;21200;-74
2021/05/06 12:44:44;;;;;;;5.80;1.55;;;15.60;62.20;;;;;;1905387;74;21007;-74
2021/05/06 12:47:16;;;;;;;5.37;1.50;;;15.40;63.50;;;;;;1900534;74;21188;-73
2021/05/06 12:49:45;;;;;;;4.78;2.20;;;15.50;68.40;;;;;;1902045;74;21185;-74
2021/05/06 12:52:32;;;;;;;7.35;1.55;;;15.80;66.80;;;;;;1912199;74;21022;-74
2021/05/06 12:55:02;;;;;;;3.02;1.35;;;16.00;61.60;;;;;;1919494;74;21075;-73
2021/05/06 12:57:30;;;;;;;3.83;0.90;;;16.10;61.80;;;;;;1900100;74;21109;-73
2021/05/06 13:00:18;;;;;;;4.00;1.07;;;16.10;59.20;;;;;;1903931;74;21014;-73
2021/05/06 13:02:46;;;;;;;3.98;0.90;;;16.00;59.10;;;;;;1902449;74;21558;-73
2021/05/06 13:05:30;;;;;;;2.85;0.90;;;15.90;59.10;;;;;;1903471;74;21154;-74
2021/05/06 13:07:58;;;;;;;3.42;0.90;;;15.80;59.20;;;;;;1906503;74;21510;-72
2021/05/06 13:10:31;;;;;;;3.58;1.00;;;15.50;61.60;;;;;;1915800;74;21060;-73
2021/05/06 13:12:58;;;;;;;3.58;0.90;;;15.40;64.00;;;;;;1909705;74;21121;-71
2021/05/06 13:15:26;;;;;;;2.25;1.20;;;15.60;64.10;;;;;;1919967;74;21190;-72
2021/05/06 13:17:55;;;;;;;4.22;1.10;;;15.90;62.40;;;;;;1901172;74;21038;-72
2021/05/06 13:20:28;;;;;;;2.95;1.02;;;15.70;60.50;;;;;;1900455;74;21121;-73
2021/05/06 13:23:07;;;;;;;2.87;1.17;;;15.10;62.20;;;;;;1914117;74;21151;-71
2021/05/06 13:25:51;;;;;;;7.37;1.57;;;14.70;64.50;;;;;;1907039;74;21129;-70
2021/05/06 13:28:34;;;;;;;7.33;1.55;;;14.10;66.60;;;;;;1903669;74;21111;-71
2021/05/06 13:31:17;;;;;;;5.67;1.77;;;13.60;71.90;;;;;;1907314;74;21130;-71
2021/05/06 13:33:47;;;;;;;5.72;2.33;;;12.80;80.10;;;;;;1905028;74;21055;-70
2021/05/06 13:36:16;;;;;;;4.35;2.37;;;12.20;84.80;;;;;;1901625;74;21163;-72
2021/05/06 13:38:55;;;;;;;4.45;2.40;;;11.80;88.70;;;;;;1905867;73;21545;-71
2021/05/06 13:41:26;;;;;;;5.28;2.33;;;11.30;91.10;;;;;;1909945;74;21071;-72
2021/05/06 13:43:54;;;;;;;5.62;2.40;;;10.90;93.40;;;;;;1909660;74;21026;-71
2021/05/06 13:46:24;;;;;;;4.35;2.08;;;10.70;95.40;;;;;;1911598;74;21580;-72
2021/05/06 13:48:52;;;;;;;4.67;2.10;;;10.80;96.30;;;;;;1899590;74;21108;-74
2021/05/06 13:51:21;;;;;;;3.98;2.25;;;10.70;98.00;;;;;;1910369;74;21058;-74
2021/05/06 13:53:50;;;;;;;7.78;2.85;;;10.80;98.50;;;;;;1906884;74;21540;-74
2021/05/06 13:56:18;;;;;;;7.53;2.40;;;10.70;98.90;;;;;;1897979;74;21035;-74
2021/05/06 13:58:46;;;;;;;4.17;2.40;;;10.70;98.80;;;;;;1894566;74;21013;-72
2021/05/06 14:01:14;;;;;;;3.52;2.22;;;10.70;99.50;;;;;;1903927;75;21120;-74
2021/05/06 14:03:42;;;;;;;5.67;2.20;;;10.80;99.60;;;;;;1903687;74;21030;-73
2021/05/06 14:06:10;;;;;;;6.22;2.12;;;10.80;99.40;;;;;;1901871;74;21066;-74
2021/05/06 14:08:38;;;;;;;7.00;2.85;;;10.70;99.50;;;;;;1901272;74;21164;-74
2021/05/06 14:11:06;;;;;;;4.30;2.20;;;10.80;99.00;;;;;;1907084;74;21070;-74
2021/05/06 14:13:34;;;;;;;5.25;2.33;;;10.80;99.90;;;;;;1908385;74;21155;-74
2021/05/06 14:16:02;;;;;;;6.95;2.30;;;10.90;99.00;;;;;;1904412;74;21552;-73
2021/05/06 14:18:30;;;;;;;3.05;1.85;;;10.80;99.20;;;;;;1900894;74;21607;-71
2021/05/06 14:21:04;;;;;;;4.00;1.82;;;10.80;99.30;;;;;;1904016;74;21087;-71
2021/05/06 14:23:38;;;;;;;3.65;1.85;;;10.90;99.60;;;;;;1906242;74;21097;-72
2021/05/06 14:26:02;;;;;;;4.05;1.95;;;11.00;97.30;;;;;;1908413;74;22386;-72
2021/05/06 14:28:30;;;;;;;3.30;1.85;;;11.20;96.90;;;;;;1915571;74;21563;-71
2021/05/06 14:30:57;;;;;;;4.05;1.77;;;11.10;96.20;;;;;;1917485;74;21586;-72
2021/05/06 14:33:25;;;;;;;3.67;1.57;;;11.20;96.30;;;;;;1903173;74;21070;-70
2021/05/06 14:35:52;;;;;;;5.60;2.10;;;11.50;96.50;;;;;;1899944;74;21031;-72
2021/05/06 14:38:20;;;;;;;3.65;2.25;;;12.00;94.80;;;;;;1917933;74;21175;-72
2021/05/06 14:40:47;;;;;;;3.92;1.42;;;12.40;93.80;;;;;;1915126;74;21212;-69
2021/05/06 14:43:15;;;;;;;5.28;1.50;;;12.80;92.30;;;;;;1909862;74;21011;-71
2021/05/06 14:45:42;;;;;;;5.67;1.67;;;12.90;91.80;;;;;;1900783;74;21704;-71
2021/05/06 14:48:12;;;;;;;7.40;2.00;;;12.90;92.00;;;;;;1908101;74;21136;-72
2021/05/06 14:50:39;;;;;;;8.05;1.77;;;12.70;91.90;;;;;;1905169;74;21789;-72
2021/05/06 14:53:06;;;;;;;3.65;1.87;;;12.60;90.20;;;;;;1907323;74;21106;-72
2021/05/06 14:55:34;;;;;;;4.83;1.67;;;12.40;90.80;;;;;;1910804;74;21120;-71
2021/05/06 14:58:03;;;;;;;5.50;1.20;;;12.30;91.90;;;;;;1897623;74;21163;-72
2021/05/06 15:00:30;;;;;;;7.45;1.77;;;12.30;91.50;;;;;;1907795;74;21104;-71
2021/05/06 15:03:01;;;;;;;6.00;1.67;;;12.20;91.20;;;;;;1906008;74;21497;-72
2021/05/06 15:05:30;;;;;;;5.75;1.98;;;12.10;91.40;;;;;;1901773;74;20995;-72
2021/05/06 15:08:02;;;;;;;6.17;1.80;;;11.90;91.90;;;;;;1900169;74;20990;-71
2021/05/06 15:10:27;;;;;;;4.70;2.20;;;11.90;92.60;;;;;;1917421;74;21062;-73
2021/05/06 15:12:55;;;;;;;4.50;1.75;;;11.80;93.20;;;;;;1902053;74;21171;-72
2021/05/06 15:15:22;;;;;;;4.10;1.60;;;11.90;93.40;;;;;;1905041;74;21094;-71
2021/05/06 15:17:56;;;;;;;3.85;1.70;;;11.90;92.20;;;;;;1903238;74;21580;-71
2021/05/06 15:20:24;;;;;;;3.25;1.35;;;11.90;92.90;;;;;;1903481;74;21066;-72
2021/05/06 15:22:49;;;;;;;5.60;1.62;;;12.00;93.00;;;;;;1901693;74;21030;-71
2021/05/06 15:25:17;;;;;;;5.78;1.62;;;12.10;92.00;;;;;;1908042;74;21093;-71
2021/05/06 15:27:45;;;;;;;4.25;1.67;;;12.30;91.10;;;;;;1903409;75;21034;-71
2021/05/06 15:30:15;;;;;;;2.45;1.15;;;12.70;91.40;;;;;;1904848;74;21055;-72
2021/05/06 15:32:42;;;;;;;2.35;0.90;;;13.00;90.90;;;;;;1905231;74;21031;-72
2021/05/06 15:35:10;;;;;;;2.80;1.20;;;13.30;90.20;;;;;;1894233;74;21099;-71
2021/05/06 15:37:38;;;;;;;3.90;1.27;;;13.70;87.90;;;;;;1900172;74;21090;-72
2021/05/06 15:40:10;;;;;;;3.40;0.95;;;13.60;82.20;;;;;;1903419;74;21138;-71
2021/05/06 15:42:39;;;;;;;4.12;1.15;;;13.80;81.10;;;;;;1897077;74;21520;-71
2021/05/06 15:45:09;;;;;;;2.47;1.20;;;13.90;81.60;;;;;;1907539;74;21105;-71
2021/05/06 15:47:38;;;;;;;3.85;1.12;;;13.80;81.20;;;;;;1908242;74;21078;-74
2021/05/06 15:50:12;;;;;;;1.62;1.10;;;13.80;82.90;;;;;;1894202;74;21136;-74
2021/05/06 15:52:40;;;;;;;2.80;1.30;;;13.70;81.30;;;;;;1898256;74;21136;-73
2021/05/06 15:55:11;;;;;;;3.75;1.20;;;13.60;84.00;;;;;;1903909;74;21103;-73